Penha, Brazil
Current Conditions -  °F | °C
As of 9:00 AM on Thursday 23 Oct 2014 (Local Time) from SBNF Reporting Station
Few Clouds Few Clouds  
Wind Chill: 68°   Ceiling: Unl
Heat Index: 68°   Visibility: 6mi
Dew Point: 59°   Wind: 8mph
Humidity: 73%   Direction: 240°WSW
Pressure: 30.18"   Gusts: NA
Location:  26.77°S, 48.65°W
Report Text: SBNF 231100Z 24007KT 9999 FEW030 20/15 Q1022
Loading
Personal Weather Stations






























Interactive Weather Map
Tropical Storm Tracking
New forecast layout! Learn more

10-Day Weather Forecast

Advertisements
Track Severe Weather on mobile